sensor_id;sensor_type;location;lat;lon;timestamp;P1;durP1;ratioP1;P2;durP2;ratioP2
62258;SDS011;48241;48.824;10.102;2022-07-25T00:01:58;9.95;;;7.68;;
62258;SDS011;48241;48.824;10.102;2022-07-25T00:04:24;8.27;;;7.50;;
62258;SDS011;48241;48.824;10.102;2022-07-25T00:06:49;8.05;;;7.30;;
62258;SDS011;48241;48.824;10.102;2022-07-25T00:09:15;8.05;;;7.35;;
62258;SDS011;48241;48.824;10.102;2022-07-25T00:11:41;8.20;;;7.32;;
62258;SDS011;48241;48.824;10.102;2022-07-25T00:14:06;9.68;;;7.28;;
62258;SDS011;48241;48.824;10.102;2022-07-25T00:16:32;8.63;;;7.75;;
62258;SDS011;48241;48.824;10.102;2022-07-25T00:18:58;8.95;;;7.63;;
62258;SDS011;48241;48.824;10.102;2022-07-25T00:21:24;8.00;;;7.20;;
62258;SDS011;48241;48.824;10.102;2022-07-25T00:23:49;8.95;;;7.50;;
62258;SDS011;48241;48.824;10.102;2022-07-25T00:26:15;8.63;;;7.82;;
62258;SDS011;48241;48.824;10.102;2022-07-25T00:28:41;7.90;;;7.20;;
62258;SDS011;48241;48.824;10.102;2022-07-25T00:31:07;7.68;;;6.97;;
62258;SDS011;48241;48.824;10.102;2022-07-25T02:37:49;10.50;;;8.40;;
62258;SDS011;48241;48.824;10.102;2022-07-25T02:40:15;8.65;;;7.85;;
62258;SDS011;48241;48.824;10.102;2022-07-25T02:42:40;9.40;;;8.15;;
62258;SDS011;48241;48.824;10.102;2022-07-25T02:45:06;9.20;;;8.40;;
62258;SDS011;48241;48.824;10.102;2022-07-25T02:47:32;10.27;;;8.70;;
62258;SDS011;48241;48.824;10.102;2022-07-25T02:49:57;9.98;;;8.65;;
62258;SDS011;48241;48.824;10.102;2022-07-25T02:52:23;9.30;;;8.40;;
62258;SDS011;48241;48.824;10.102;2022-07-25T02:54:49;9.13;;;8.23;;
62258;SDS011;48241;48.824;10.102;2022-07-25T02:57:15;8.85;;;8.05;;
62258;SDS011;48241;48.824;10.102;2022-07-25T02:59:40;8.55;;;7.75;;
62258;SDS011;48241;48.824;10.102;2022-07-25T03:02:06;9.63;;;8.73;;
62258;SDS011;48241;48.824;10.102;2022-07-25T03:04:32;10.88;;;8.77;;
62258;SDS011;48241;48.824;10.102;2022-07-25T03:06:57;9.32;;;8.40;;
62258;SDS011;48241;48.824;10.102;2022-07-25T03:09:23;8.95;;;8.15;;
62258;SDS011;48241;48.824;10.102;2022-07-25T03:11:48;8.93;;;8.13;;
62258;SDS011;48241;48.824;10.102;2022-07-25T03:14:15;8.52;;;7.72;;
62258;SDS011;48241;48.824;10.102;2022-07-25T03:16:41;9.07;;;8.27;;
62258;SDS011;48241;48.824;10.102;2022-07-25T03:19:07;8.98;;;7.80;;
62258;SDS011;48241;48.824;10.102;2022-07-25T03:21:35;9.30;;;8.40;;
62258;SDS011;48241;48.824;10.102;2022-07-25T03:24:01;9.90;;;8.90;;
62258;SDS011;48241;48.824;10.102;2022-07-25T03:26:26;9.05;;;7.90;;
62258;SDS011;48241;48.824;10.102;2022-07-25T03:28:52;9.38;;;8.48;;
62258;SDS011;48241;48.824;10.102;2022-07-25T03:31:18;9.73;;;8.82;;
62258;SDS011;48241;48.824;10.102;2022-07-25T03:33:43;10.07;;;8.75;;
62258;SDS011;48241;48.824;10.102;2022-07-25T03:36:09;9.10;;;8.25;;
62258;SDS011;48241;48.824;10.102;2022-07-25T03:38:35;9.45;;;8.60;;
62258;SDS011;48241;48.824;10.102;2022-07-25T03:41:01;9.48;;;8.68;;
62258;SDS011;48241;48.824;10.102;2022-07-25T03:43:26;8.85;;;8.05;;
62258;SDS011;48241;48.824;10.102;2022-07-25T03:45:52;9.18;;;8.25;;
62258;SDS011;48241;48.824;10.102;2022-07-25T03:48:18;9.38;;;8.48;;
62258;SDS011;48241;48.824;10.102;2022-07-25T03:50:43;9.07;;;8.27;;
62258;SDS011;48241;48.824;10.102;2022-07-25T03:53:09;9.40;;;8.50;;
62258;SDS011;48241;48.824;10.102;2022-07-25T03:55:34;9.38;;;8.48;;
62258;SDS011;48241;48.824;10.102;2022-07-25T03:58:00;9.15;;;8.35;;
62258;SDS011;48241;48.824;10.102;2022-07-25T04:00:26;9.15;;;8.15;;
62258;SDS011;48241;48.824;10.102;2022-07-25T04:02:51;10.00;;;8.98;;
62258;SDS011;48241;48.824;10.102;2022-07-25T04:05:17;9.30;;;8.43;;
62258;SDS011;48241;48.824;10.102;2022-07-25T04:07:43;9.18;;;8.38;;
62258;SDS011;48241;48.824;10.102;2022-07-25T04:10:08;9.02;;;8.23;;
62258;SDS011;48241;48.824;10.102;2022-07-25T04:12:35;9.60;;;8.60;;
62258;SDS011;48241;48.824;10.102;2022-07-25T04:15:01;9.20;;;8.40;;
62258;SDS011;48241;48.824;10.102;2022-07-25T04:17:27;9.68;;;8.70;;
62258;SDS011;48241;48.824;10.102;2022-07-25T04:19:52;9.50;;;8.50;;
62258;SDS011;48241;48.824;10.102;2022-07-25T04:22:18;9.82;;;8.90;;
62258;SDS011;48241;48.824;10.102;2022-07-25T04:24:44;9.32;;;8.43;;
62258;SDS011;48241;48.824;10.102;2022-07-25T04:27:10;9.57;;;8.68;;
62258;SDS011;48241;48.824;10.102;2022-07-25T04:29:35;9.60;;;8.63;;
62258;SDS011;48241;48.824;10.102;2022-07-25T04:32:01;9.70;;;7.75;;
62258;SDS011;48241;48.824;10.102;2022-07-25T04:34:27;7.68;;;6.97;;
62258;SDS011;48241;48.824;10.102;2022-07-25T04:36:52;10.07;;;8.80;;
62258;SDS011;48241;48.824;10.102;2022-07-25T04:39:18;8.68;;;7.95;;
62258;SDS011;48241;48.824;10.102;2022-07-25T04:41:43;9.30;;;8.50;;
62258;SDS011;48241;48.824;10.102;2022-07-25T04:44:09;9.30;;;8.32;;
62258;SDS011;48241;48.824;10.102;2022-07-25T04:46:34;8.40;;;7.68;;
62258;SDS011;48241;48.824;10.102;2022-07-25T04:49:00;9.15;;;8.23;;
62258;SDS011;48241;48.824;10.102;2022-07-25T04:51:26;8.38;;;7.63;;
62258;SDS011;48241;48.824;10.102;2022-07-25T04:53:51;8.15;;;7.45;;
62258;SDS011;48241;48.824;10.102;2022-07-25T04:56:17;7.90;;;7.20;;
62258;SDS011;48241;48.824;10.102;2022-07-25T04:58:42;7.93;;;7.05;;
62258;SDS011;48241;48.824;10.102;2022-07-25T05:04:08;7.85;;;7.15;;
62258;SDS011;48241;48.824;10.102;2022-07-25T05:06:33;7.70;;;6.97;;
62258;SDS011;48241;48.824;10.102;2022-07-25T05:08:59;7.53;;;6.90;;
62258;SDS011;48241;48.824;10.102;2022-07-25T05:11:25;7.43;;;6.72;;
62258;SDS011;48241;48.824;10.102;2022-07-25T05:13:50;8.15;;;7.45;;
62258;SDS011;48241;48.824;10.102;2022-07-25T05:16:16;7.32;;;6.72;;
62258;SDS011;48241;48.824;10.102;2022-07-25T05:18:42;7.43;;;6.80;;
62258;SDS011;48241;48.824;10.102;2022-07-25T05:21:13;7.57;;;6.90;;
62258;SDS011;48241;48.824;10.102;2022-07-25T05:23:42;10.10;;;6.80;;
62258;SDS011;48241;48.824;10.102;2022-07-25T05:26:08;7.63;;;6.90;;
62258;SDS011;48241;48.824;10.102;2022-07-25T05:28:34;9.02;;;6.95;;
62258;SDS011;48241;48.824;10.102;2022-07-25T05:31:00;7.30;;;6.70;;
62258;SDS011;48241;48.824;10.102;2022-07-25T05:33:26;7.90;;;7.10;;
62258;SDS011;48241;48.824;10.102;2022-07-25T05:35:51;7.28;;;6.63;;
62258;SDS011;48241;48.824;10.102;2022-07-25T05:38:18;7.75;;;7.15;;
62258;SDS011;48241;48.824;10.102;2022-07-25T05:40:44;7.97;;;7.18;;
62258;SDS011;48241;48.824;10.102;2022-07-25T05:43:10;8.32;;;7.53;;
62258;SDS011;48241;48.824;10.102;2022-07-25T05:45:36;8.20;;;7.45;;
62258;SDS011;48241;48.824;10.102;2022-07-25T05:48:01;8.00;;;7.28;;
62258;SDS011;48241;48.824;10.102;2022-07-25T05:50:27;7.93;;;7.22;;
62258;SDS011;48241;48.824;10.102;2022-07-25T05:52:53;8.43;;;7.55;;
62258;SDS011;48241;48.824;10.102;2022-07-25T05:55:18;7.93;;;7.22;;
62258;SDS011;48241;48.824;10.102;2022-07-25T05:57:44;7.95;;;7.25;;
62258;SDS011;48241;48.824;10.102;2022-07-25T06:00:10;8.00;;;7.30;;
62258;SDS011;48241;48.824;10.102;2022-07-25T06:02:36;8.20;;;7.40;;
62258;SDS011;48241;48.824;10.102;2022-07-25T06:05:02;8.40;;;7.43;;
62258;SDS011;48241;48.824;10.102;2022-07-25T06:07:27;8.70;;;7.90;;
62258;SDS011;48241;48.824;10.102;2022-07-25T06:09:53;8.43;;;7.63;;
62258;SDS011;48241;48.824;10.102;2022-07-25T06:12:18;8.38;;;7.68;;
62258;SDS011;48241;48.824;10.102;2022-07-25T06:14:44;8.80;;;8.10;;
62258;SDS011;48241;48.824;10.102;2022-07-25T06:17:09;8.15;;;7.32;;
62258;SDS011;48241;48.824;10.102;2022-07-25T06:19:35;8.00;;;7.10;;
62258;SDS011;48241;48.824;10.102;2022-07-25T06:22:00;8.13;;;7.32;;
62258;SDS011;48241;48.824;10.102;2022-07-25T06:24:26;8.50;;;7.43;;
62258;SDS011;48241;48.824;10.102;2022-07-25T06:26:52;8.20;;;7.50;;
62258;SDS011;48241;48.824;10.102;2022-07-25T06:29:17;8.35;;;7.60;;
62258;SDS011;48241;48.824;10.102;2022-07-25T06:31:43;8.68;;;7.90;;
62258;SDS011;48241;48.824;10.102;2022-07-25T06:34:08;8.30;;;7.60;;
62258;SDS011;48241;48.824;10.102;2022-07-25T06:36:34;7.82;;;7.13;;
62258;SDS011;48241;48.824;10.102;2022-07-25T06:38:59;8.00;;;7.30;;
62258;SDS011;48241;48.824;10.102;2022-07-25T06:41:25;7.80;;;7.13;;
62258;SDS011;48241;48.824;10.102;2022-07-25T06:43:51;7.85;;;7.05;;
62258;SDS011;48241;48.824;10.102;2022-07-25T06:46:16;7.90;;;7.18;;
62258;SDS011;48241;48.824;10.102;2022-07-25T06:48:42;8.68;;;7.85;;
62258;SDS011;48241;48.824;10.102;2022-07-25T06:51:07;7.20;;;6.50;;
62258;SDS011;48241;48.824;10.102;2022-07-25T06:53:33;8.43;;;7.72;;
62258;SDS011;48241;48.824;10.102;2022-07-25T06:55:58;10.60;;;7.90;;
62258;SDS011;48241;48.824;10.102;2022-07-25T06:58:24;8.32;;;7.53;;
62258;SDS011;48241;48.824;10.102;2022-07-25T07:00:50;6.65;;;5.72;;
62258;SDS011;48241;48.824;10.102;2022-07-25T07:03:15;8.25;;;7.45;;
62258;SDS011;48241;48.824;10.102;2022-07-25T07:05:41;8.15;;;7.13;;
62258;SDS011;48241;48.824;10.102;2022-07-25T07:08:06;7.93;;;7.13;;
62258;SDS011;48241;48.824;10.102;2022-07-25T07:10:32;8.13;;;7.40;;
62258;SDS011;48241;48.824;10.102;2022-07-25T07:13:08;7.75;;;6.97;;
62258;SDS011;48241;48.824;10.102;2022-07-25T07:15:35;8.20;;;7.40;;
62258;SDS011;48241;48.824;10.102;2022-07-25T07:18:01;8.32;;;7.60;;
62258;SDS011;48241;48.824;10.102;2022-07-25T07:20:27;9.52;;;7.45;;
62258;SDS011;48241;48.824;10.102;2022-07-25T07:22:53;7.47;;;6.88;;
62258;SDS011;48241;48.824;10.102;2022-07-25T07:25:19;8.00;;;7.20;;
62258;SDS011;48241;48.824;10.102;2022-07-25T07:27:47;7.97;;;7.20;;
62258;SDS011;48241;48.824;10.102;2022-07-25T07:30:13;7.97;;;7.20;;
62258;SDS011;48241;48.824;10.102;2022-07-25T07:32:39;8.05;;;7.38;;
62258;SDS011;48241;48.824;10.102;2022-07-25T07:35:06;7.60;;;6.85;;
62258;SDS011;48241;48.824;10.102;2022-07-25T07:37:32;7.75;;;7.05;;
62258;SDS011;48241;48.824;10.102;2022-07-25T07:39:57;10.27;;;7.68;;
62258;SDS011;48241;48.824;10.102;2022-07-25T07:42:23;8.02;;;7.13;;
62258;SDS011;48241;48.824;10.102;2022-07-25T07:44:48;8.10;;;6.80;;
62258;SDS011;48241;48.824;10.102;2022-07-25T07:47:14;7.18;;;6.57;;
62258;SDS011;48241;48.824;10.102;2022-07-25T07:49:39;7.10;;;6.40;;
62258;SDS011;48241;48.824;10.102;2022-07-25T07:52:05;7.47;;;6.72;;
62258;SDS011;48241;48.824;10.102;2022-07-25T07:54:30;7.20;;;6.55;;
62258;SDS011;48241;48.824;10.102;2022-07-25T07:57:15;7.32;;;6.72;;
62258;SDS011;48241;48.824;10.102;2022-07-25T07:59:40;7.07;;;6.47;;
62258;SDS011;48241;48.824;10.102;2022-07-25T08:02:06;7.35;;;6.75;;
62258;SDS011;48241;48.824;10.102;2022-07-25T08:04:31;7.43;;;6.38;;
62258;SDS011;48241;48.824;10.102;2022-07-25T08:06:57;6.97;;;6.38;;
62258;SDS011;48241;48.824;10.102;2022-07-25T08:09:22;6.63;;;6.05;;
62258;SDS011;48241;48.824;10.102;2022-07-25T08:11:50;9.10;;;5.95;;
62258;SDS011;48241;48.824;10.102;2022-07-25T08:14:16;6.75;;;6.10;;
62258;SDS011;48241;48.824;10.102;2022-07-25T08:16:42;6.78;;;6.07;;
62258;SDS011;48241;48.824;10.102;2022-07-25T08:19:07;6.20;;;5.70;;
62258;SDS011;48241;48.824;10.102;2022-07-25T08:21:33;6.80;;;6.20;;
62258;SDS011;48241;48.824;10.102;2022-07-25T08:23:58;6.82;;;6.25;;
62258;SDS011;48241;48.824;10.102;2022-07-25T08:26:24;7.43;;;6.47;;
62258;SDS011;48241;48.824;10.102;2022-07-25T08:28:51;6.65;;;6.05;;
62258;SDS011;48241;48.824;10.102;2022-07-25T08:31:17;6.63;;;5.95;;
62258;SDS011;48241;48.824;10.102;2022-07-25T08:33:43;6.20;;;5.63;;
62258;SDS011;48241;48.824;10.102;2022-07-25T08:36:08;6.13;;;5.63;;
62258;SDS011;48241;48.824;10.102;2022-07-25T08:38:35;6.65;;;6.00;;
62258;SDS011;48241;48.824;10.102;2022-07-25T08:41:01;6.57;;;6.00;;
62258;SDS011;48241;48.824;10.102;2022-07-25T08:43:27;6.10;;;5.57;;
62258;SDS011;48241;48.824;10.102;2022-07-25T08:45:56;7.85;;;6.47;;
62258;SDS011;48241;48.824;10.102;2022-07-25T08:48:25;6.55;;;5.95;;
62258;SDS011;48241;48.824;10.102;2022-07-25T08:50:51;5.72;;;5.25;;
62258;SDS011;48241;48.824;10.102;2022-07-25T08:53:18;7.50;;;5.60;;
62258;SDS011;48241;48.824;10.102;2022-07-25T08:55:45;6.05;;;5.45;;
62258;SDS011;48241;48.824;10.102;2022-07-25T08:58:11;6.85;;;5.85;;
62258;SDS011;48241;48.824;10.102;2022-07-25T09:00:38;6.35;;;5.80;;
62258;SDS011;48241;48.824;10.102;2022-07-25T09:03:04;5.90;;;5.40;;
62258;SDS011;48241;48.824;10.102;2022-07-25T09:05:30;6.90;;;6.30;;
62258;SDS011;48241;48.824;10.102;2022-07-25T09:07:57;6.80;;;6.25;;
62258;SDS011;48241;48.824;10.102;2022-07-25T09:10:34;6.30;;;5.80;;
62258;SDS011;48241;48.824;10.102;2022-07-25T09:18:00;6.28;;;5.68;;
62258;SDS011;48241;48.824;10.102;2022-07-25T09:23:13;6.10;;;5.50;;
62258;SDS011;48241;48.824;10.102;2022-07-25T09:25:50;6.47;;;5.80;;
62258;SDS011;48241;48.824;10.102;2022-07-25T09:28:16;6.65;;;6.05;;
62258;SDS011;48241;48.824;10.102;2022-07-25T09:30:56;6.70;;;6.10;;
62258;SDS011;48241;48.824;10.102;2022-07-25T09:33:23;6.28;;;5.78;;
62258;SDS011;48241;48.824;10.102;2022-07-25T09:35:50;6.53;;;6.00;;
62258;SDS011;48241;48.824;10.102;2022-07-25T09:38:17;6.68;;;6.13;;
62258;SDS011;48241;48.824;10.102;2022-07-25T09:40:53;6.43;;;5.88;;
62258;SDS011;48241;48.824;10.102;2022-07-25T09:43:36;6.20;;;5.57;;
62258;SDS011;48241;48.824;10.102;2022-07-25T09:46:03;6.57;;;6.05;;
62258;SDS011;48241;48.824;10.102;2022-07-25T09:48:29;6.20;;;5.70;;
62258;SDS011;48241;48.824;10.102;2022-07-25T09:50:56;6.50;;;5.38;;
62258;SDS011;48241;48.824;10.102;2022-07-25T09:53:22;5.95;;;5.35;;
62258;SDS011;48241;48.824;10.102;2022-07-25T09:55:48;6.55;;;6.05;;
62258;SDS011;48241;48.824;10.102;2022-07-25T09:58:13;6.05;;;5.45;;
62258;SDS011;48241;48.824;10.102;2022-07-25T10:00:39;5.47;;;5.07;;
62258;SDS011;48241;48.824;10.102;2022-07-25T10:03:28;5.45;;;4.97;;
62258;SDS011;48241;48.824;10.102;2022-07-25T10:06:13;4.78;;;4.47;;
62258;SDS011;48241;48.824;10.102;2022-07-25T10:08:48;5.28;;;4.88;;
62258;SDS011;48241;48.824;10.102;2022-07-25T10:11:22;5.50;;;5.10;;
62258;SDS011;48241;48.824;10.102;2022-07-25T10:13:49;5.28;;;4.70;;
62258;SDS011;48241;48.824;10.102;2022-07-25T10:16:18;4.75;;;4.38;;
62258;SDS011;48241;48.824;10.102;2022-07-25T10:18:48;5.70;;;5.20;;
62258;SDS011;48241;48.824;10.102;2022-07-25T10:21:15;6.28;;;5.65;;
62258;SDS011;48241;48.824;10.102;2022-07-25T10:23:41;5.43;;;4.97;;
62258;SDS011;48241;48.824;10.102;2022-07-25T10:26:08;4.88;;;4.43;;
62258;SDS011;48241;48.824;10.102;2022-07-25T10:28:43;6.80;;;6.18;;
62258;SDS011;48241;48.824;10.102;2022-07-25T10:31:14;19.55;;;17.55;;
62258;SDS011;48241;48.824;10.102;2022-07-25T10:33:52;3.70;;;3.40;;
62258;SDS011;48241;48.824;10.102;2022-07-25T10:36:23;5.13;;;4.32;;
62258;SDS011;48241;48.824;10.102;2022-07-25T10:38:59;4.00;;;3.70;;
62258;SDS011;48241;48.824;10.102;2022-07-25T10:41:25;4.93;;;4.55;;
62258;SDS011;48241;48.824;10.102;2022-07-25T10:43:55;4.20;;;3.90;;
62258;SDS011;48241;48.824;10.102;2022-07-25T10:46:24;4.85;;;4.45;;
62258;SDS011;48241;48.824;10.102;2022-07-25T10:48:58;5.50;;;4.82;;
62258;SDS011;48241;48.824;10.102;2022-07-25T10:51:28;6.43;;;5.18;;
62258;SDS011;48241;48.824;10.102;2022-07-25T10:53:56;4.93;;;4.53;;
62258;SDS011;48241;48.824;10.102;2022-07-25T10:56:22;4.88;;;4.47;;
62258;SDS011;48241;48.824;10.102;2022-07-25T10:58:56;5.03;;;4.63;;
62258;SDS011;48241;48.824;10.102;2022-07-25T11:01:25;5.15;;;4.75;;
62258;SDS011;48241;48.824;10.102;2022-07-25T11:04:00;5.88;;;5.25;;
62258;SDS011;48241;48.824;10.102;2022-07-25T11:06:31;5.32;;;4.80;;
62258;SDS011;48241;48.824;10.102;2022-07-25T11:08:57;5.03;;;4.53;;
62258;SDS011;48241;48.824;10.102;2022-07-25T11:11:31;4.85;;;4.45;;
62258;SDS011;48241;48.824;10.102;2022-07-25T11:14:01;4.95;;;4.50;;
62258;SDS011;48241;48.824;10.102;2022-07-25T11:16:28;5.75;;;4.55;;
62258;SDS011;48241;48.824;10.102;2022-07-25T11:18:54;5.15;;;4.65;;
62258;SDS011;48241;48.824;10.102;2022-07-25T11:21:19;5.97;;;5.40;;
62258;SDS011;48241;48.824;10.102;2022-07-25T11:23:51;6.88;;;5.90;;
62258;SDS011;48241;48.824;10.102;2022-07-25T11:28:44;6.55;;;5.88;;
62258;SDS011;48241;48.824;10.102;2022-07-25T11:31:11;5.70;;;5.20;;
62258;SDS011;48241;48.824;10.102;2022-07-25T11:33:38;5.20;;;4.70;;
62258;SDS011;48241;48.824;10.102;2022-07-25T11:36:05;4.72;;;4.22;;
62258;SDS011;48241;48.824;10.102;2022-07-25T11:38:31;5.38;;;4.97;;
62258;SDS011;48241;48.824;10.102;2022-07-25T11:40:57;6.13;;;5.07;;
62258;SDS011;48241;48.824;10.102;2022-07-25T11:43:24;5.72;;;5.13;;
62258;SDS011;48241;48.824;10.102;2022-07-25T11:48:30;5.30;;;4.80;;
62258;SDS011;48241;48.824;10.102;2022-07-25T11:50:57;5.18;;;4.68;;
62258;SDS011;48241;48.824;10.102;2022-07-25T11:53:37;6.13;;;5.53;;
62258;SDS011;48241;48.824;10.102;2022-07-25T11:56:11;5.50;;;5.00;;
62258;SDS011;48241;48.824;10.102;2022-07-25T11:58:37;5.93;;;5.28;;
62258;SDS011;48241;48.824;10.102;2022-07-25T12:01:09;6.10;;;5.60;;
62258;SDS011;48241;48.824;10.102;2022-07-25T12:03:36;5.55;;;5.15;;
62258;SDS011;48241;48.824;10.102;2022-07-25T12:06:06;5.68;;;5.18;;
62258;SDS011;48241;48.824;10.102;2022-07-25T12:08:37;6.03;;;5.53;;
62258;SDS011;48241;48.824;10.102;2022-07-25T12:11:04;6.25;;;5.65;;
62258;SDS011;48241;48.824;10.102;2022-07-25T12:13:41;6.25;;;5.53;;
62258;SDS011;48241;48.824;10.102;2022-07-25T12:16:06;6.45;;;5.80;;
62258;SDS011;48241;48.824;10.102;2022-07-25T12:18:32;5.88;;;5.38;;
62258;SDS011;48241;48.824;10.102;2022-07-25T12:20:58;6.22;;;5.65;;
62258;SDS011;48241;48.824;10.102;2022-07-25T12:23:23;6.38;;;5.88;;
62258;SDS011;48241;48.824;10.102;2022-07-25T12:25:49;6.35;;;5.72;;
62258;SDS011;48241;48.824;10.102;2022-07-25T12:28:15;6.45;;;5.90;;
62258;SDS011;48241;48.824;10.102;2022-07-25T12:30:41;6.80;;;6.05;;
62258;SDS011;48241;48.824;10.102;2022-07-25T12:33:07;6.28;;;5.78;;
62258;SDS011;48241;48.824;10.102;2022-07-25T12:35:33;6.90;;;5.68;;
62258;SDS011;48241;48.824;10.102;2022-07-25T12:38:01;6.40;;;5.80;;
62258;SDS011;48241;48.824;10.102;2022-07-25T12:40:27;5.70;;;5.20;;
62258;SDS011;48241;48.824;10.102;2022-07-25T12:42:52;6.45;;;5.93;;
62258;SDS011;48241;48.824;10.102;2022-07-25T12:45:18;6.28;;;5.78;;
62258;SDS011;48241;48.824;10.102;2022-07-25T12:47:44;6.40;;;5.80;;
62258;SDS011;48241;48.824;10.102;2022-07-25T12:50:11;6.38;;;5.78;;
62258;SDS011;48241;48.824;10.102;2022-07-25T12:52:38;5.63;;;5.22;;
62258;SDS011;48241;48.824;10.102;2022-07-25T12:55:07;8.15;;;5.70;;
62258;SDS011;48241;48.824;10.102;2022-07-25T12:57:34;5.82;;;5.32;;
62258;SDS011;48241;48.824;10.102;2022-07-25T13:00:02;6.53;;;5.93;;
62258;SDS011;48241;48.824;10.102;2022-07-25T13:02:29;6.32;;;5.82;;
62258;SDS011;48241;48.824;10.102;2022-07-25T13:04:55;6.00;;;5.50;;
62258;SDS011;48241;48.824;10.102;2022-07-25T13:07:21;6.22;;;5.63;;
62258;SDS011;48241;48.824;10.102;2022-07-25T13:09:46;6.35;;;5.82;;
62258;SDS011;48241;48.824;10.102;2022-07-25T13:12:12;6.22;;;5.65;;
62258;SDS011;48241;48.824;10.102;2022-07-25T13:14:37;5.80;;;5.28;;
62258;SDS011;48241;48.824;10.102;2022-07-25T13:17:03;6.07;;;5.57;;
62258;SDS011;48241;48.824;10.102;2022-07-25T13:19:29;6.20;;;5.60;;
62258;SDS011;48241;48.824;10.102;2022-07-25T13:21:54;6.25;;;5.75;;
62258;SDS011;48241;48.824;10.102;2022-07-25T13:24:20;6.20;;;5.63;;
62258;SDS011;48241;48.824;10.102;2022-07-25T13:26:45;6.38;;;5.88;;
62258;SDS011;48241;48.824;10.102;2022-07-25T13:29:11;5.90;;;5.40;;
62258;SDS011;48241;48.824;10.102;2022-07-25T13:31:37;5.97;;;5.38;;
62258;SDS011;48241;48.824;10.102;2022-07-25T13:34:03;5.93;;;5.43;;
62258;SDS011;48241;48.824;10.102;2022-07-25T13:36:31;5.82;;;5.30;;
62258;SDS011;48241;48.824;10.102;2022-07-25T13:39:00;6.20;;;5.60;;
62258;SDS011;48241;48.824;10.102;2022-07-25T13:41:26;5.63;;;5.13;;
62258;SDS011;48241;48.824;10.102;2022-07-25T13:43:52;6.13;;;5.60;;
62258;SDS011;48241;48.824;10.102;2022-07-25T13:46:18;5.93;;;5.43;;
62258;SDS011;48241;48.824;10.102;2022-07-25T13:48:43;6.40;;;5.43;;
62258;SDS011;48241;48.824;10.102;2022-07-25T13:51:09;5.65;;;5.15;;
62258;SDS011;48241;48.824;10.102;2022-07-25T13:53:35;5.60;;;5.10;;
62258;SDS011;48241;48.824;10.102;2022-07-25T13:56:00;5.60;;;5.10;;
62258;SDS011;48241;48.824;10.102;2022-07-25T13:58:27;5.95;;;5.32;;
62258;SDS011;48241;48.824;10.102;2022-07-25T14:00:53;5.03;;;4.30;;
62258;SDS011;48241;48.824;10.102;2022-07-25T14:03:19;5.10;;;4.60;;
62258;SDS011;48241;48.824;10.102;2022-07-25T14:05:44;6.53;;;4.55;;
62258;SDS011;48241;48.824;10.102;2022-07-25T14:08:10;6.10;;;5.55;;
62258;SDS011;48241;48.824;10.102;2022-07-25T14:10:36;5.68;;;5.22;;
62258;SDS011;48241;48.824;10.102;2022-07-25T14:13:02;6.05;;;5.55;;
62258;SDS011;48241;48.824;10.102;2022-07-25T14:15:27;6.00;;;5.40;;
62258;SDS011;48241;48.824;10.102;2022-07-25T14:17:53;5.53;;;5.13;;
62258;SDS011;48241;48.824;10.102;2022-07-25T14:20:18;6.28;;;5.72;;
62258;SDS011;48241;48.824;10.102;2022-07-25T14:22:44;6.50;;;5.90;;
62258;SDS011;48241;48.824;10.102;2022-07-25T14:25:10;5.93;;;5.40;;
62258;SDS011;48241;48.824;10.102;2022-07-25T14:27:36;6.68;;;6.07;;
62258;SDS011;48241;48.824;10.102;2022-07-25T14:30:06;6.65;;;5.90;;
62258;SDS011;48241;48.824;10.102;2022-07-25T14:32:33;6.13;;;5.63;;
62258;SDS011;48241;48.824;10.102;2022-07-25T14:34:59;6.22;;;5.72;;
62258;SDS011;48241;48.824;10.102;2022-07-25T14:37:26;6.55;;;5.93;;
62258;SDS011;48241;48.824;10.102;2022-07-25T14:39:55;6.07;;;5.57;;
62258;SDS011;48241;48.824;10.102;2022-07-25T14:42:23;6.75;;;6.10;;
62258;SDS011;48241;48.824;10.102;2022-07-25T14:44:49;6.20;;;5.60;;
62258;SDS011;48241;48.824;10.102;2022-07-25T14:47:15;6.68;;;6.03;;
62258;SDS011;48241;48.824;10.102;2022-07-25T14:49:40;6.35;;;5.85;;
62258;SDS011;48241;48.824;10.102;2022-07-25T14:52:07;6.70;;;5.97;;
62258;SDS011;48241;48.824;10.102;2022-07-25T14:54:33;8.27;;;6.53;;
62258;SDS011;48241;48.824;10.102;2022-07-25T14:56:59;7.05;;;6.47;;
62258;SDS011;48241;48.824;10.102;2022-07-25T14:59:25;6.82;;;6.05;;
62258;SDS011;48241;48.824;10.102;2022-07-25T15:01:50;6.55;;;5.95;;
62258;SDS011;48241;48.824;10.102;2022-07-25T15:04:16;6.45;;;5.85;;
62258;SDS011;48241;48.824;10.102;2022-07-25T15:06:45;6.28;;;5.63;;
62258;SDS011;48241;48.824;10.102;2022-07-25T15:09:11;6.47;;;5.88;;
62258;SDS011;48241;48.824;10.102;2022-07-25T15:11:37;6.13;;;5.63;;
62258;SDS011;48241;48.824;10.102;2022-07-25T15:14:03;5.90;;;5.30;;
62258;SDS011;48241;48.824;10.102;2022-07-25T15:16:28;6.20;;;5.60;;
62258;SDS011;48241;48.824;10.102;2022-07-25T15:18:54;5.40;;;4.97;;
62258;SDS011;48241;48.824;10.102;2022-07-25T15:21:21;6.00;;;5.50;;
62258;SDS011;48241;48.824;10.102;2022-07-25T15:23:48;5.95;;;5.45;;
62258;SDS011;48241;48.824;10.102;2022-07-25T15:26:14;5.97;;;5.47;;
62258;SDS011;48241;48.824;10.102;2022-07-25T15:28:39;5.82;;;5.20;;
62258;SDS011;48241;48.824;10.102;2022-07-25T15:31:05;5.82;;;5.32;;
62258;SDS011;48241;48.824;10.102;2022-07-25T15:33:31;6.85;;;5.10;;
62258;SDS011;48241;48.824;10.102;2022-07-25T15:35:57;7.45;;;3.83;;
62258;SDS011;48241;48.824;10.102;2022-07-25T15:38:23;9.18;;;4.38;;
62258;SDS011;48241;48.824;10.102;2022-07-25T15:40:48;9.02;;;3.83;;
62258;SDS011;48241;48.824;10.102;2022-07-25T15:43:14;15.95;;;6.30;;
62258;SDS011;48241;48.824;10.102;2022-07-25T15:45:40;6.57;;;3.65;;
62258;SDS011;48241;48.824;10.102;2022-07-25T15:48:08;9.82;;;4.43;;
62258;SDS011;48241;48.824;10.102;2022-07-25T15:50:38;8.52;;;5.97;;
62258;SDS011;48241;48.824;10.102;2022-07-25T15:53:06;5.77;;;4.03;;
62258;SDS011;48241;48.824;10.102;2022-07-25T15:55:32;9.20;;;5.15;;
62258;SDS011;48241;48.824;10.102;2022-07-25T15:57:59;12.85;;;8.13;;
62258;SDS011;48241;48.824;10.102;2022-07-25T16:00:24;7.75;;;4.95;;
62258;SDS011;48241;48.824;10.102;2022-07-25T16:02:50;5.82;;;5.05;;
62258;SDS011;48241;48.824;10.102;2022-07-25T16:05:16;6.60;;;4.20;;
62258;SDS011;48241;48.824;10.102;2022-07-25T16:07:42;8.32;;;4.68;;
62258;SDS011;48241;48.824;10.102;2022-07-25T16:10:08;6.72;;;4.55;;
62258;SDS011;48241;48.824;10.102;2022-07-25T16:12:34;6.18;;;4.50;;
62258;SDS011;48241;48.824;10.102;2022-07-25T16:15:00;5.40;;;4.13;;
62258;SDS011;48241;48.824;10.102;2022-07-25T16:17:26;5.70;;;4.13;;
62258;SDS011;48241;48.824;10.102;2022-07-25T16:19:52;5.10;;;4.30;;
62258;SDS011;48241;48.824;10.102;2022-07-25T16:22:18;4.90;;;4.40;;
62258;SDS011;48241;48.824;10.102;2022-07-25T16:24:44;5.38;;;4.40;;
62258;SDS011;48241;48.824;10.102;2022-07-25T16:27:10;6.35;;;4.35;;
62258;SDS011;48241;48.824;10.102;2022-07-25T16:29:36;4.32;;;3.92;;
62258;SDS011;48241;48.824;10.102;2022-07-25T16:32:01;5.55;;;4.30;;
62258;SDS011;48241;48.824;10.102;2022-07-25T16:34:27;4.30;;;3.90;;
62258;SDS011;48241;48.824;10.102;2022-07-25T16:36:53;5.10;;;4.60;;
62258;SDS011;48241;48.824;10.102;2022-07-25T16:39:19;7.38;;;4.72;;
62258;SDS011;48241;48.824;10.102;2022-07-25T16:41:46;5.25;;;4.75;;
62258;SDS011;48241;48.824;10.102;2022-07-25T16:44:11;4.93;;;4.43;;
62258;SDS011;48241;48.824;10.102;2022-07-25T16:46:37;4.90;;;4.40;;
62258;SDS011;48241;48.824;10.102;2022-07-25T16:49:02;6.03;;;4.80;;
62258;SDS011;48241;48.824;10.102;2022-07-25T16:51:28;5.43;;;4.50;;